createdAt,value
2018-10-21T00:00:52.463Z,102364.47
2018-10-21T00:03:20.868Z,102362.96
2018-10-21T00:05:49.297Z,102359.63
2018-10-21T00:08:17.723Z,102365.09
2018-10-21T00:10:46.137Z,102357.22
2018-10-21T00:13:14.501Z,102362.28
2018-10-21T00:15:43.005Z,102359.34
2018-10-21T00:18:11.387Z,102362.55
2018-10-21T00:20:39.784Z,102359.53
2018-10-21T00:23:08.149Z,102359.66
2018-10-21T00:25:37.312Z,102355.52
2018-10-21T00:28:06.229Z,102358.46
2018-10-21T00:30:34.656Z,102359.17
2018-10-21T00:33:03.129Z,102359.34
2018-10-21T00:35:31.489Z,102350.62
2018-10-21T00:37:59.916Z,102352.77
2018-10-21T00:40:28.332Z,102353.17
2018-10-21T00:42:56.814Z,102357.19
2018-10-21T00:45:25.234Z,102353.61
2018-10-21T00:47:53.644Z,102354.25
2018-10-21T00:50:22.055Z,102357.27
2018-10-21T00:52:50.523Z,102346.86
2018-10-21T00:55:18.935Z,102353.93
2018-10-21T00:57:47.305Z,102358.58
2018-10-21T01:00:15.686Z,102355.95
2018-10-21T01:02:44.092Z,102351.83
2018-10-21T01:05:12.472Z,102351.51
2018-10-21T01:07:40.895Z,102344.36
2018-10-21T01:10:11.192Z,102337.99
2018-10-21T01:12:39.752Z,102342.08
2018-10-21T01:15:09.618Z,102345.81
2018-10-21T01:17:37.960Z,102348.17
2018-10-21T01:20:08.332Z,102354.17
2018-10-21T01:22:36.795Z,102359.58
2018-10-21T01:25:05.440Z,102360.09
2018-10-21T01:27:33.864Z,102366.30
2018-10-21T01:30:02.325Z,102357.38
2018-10-21T01:32:30.712Z,102358.82
2018-10-21T01:34:59.131Z,102360.48
2018-10-21T01:37:27.569Z,102366.61
2018-10-21T01:40:59.776Z,102368.83
2018-10-21T01:43:30.456Z,102369.78
2018-10-21T01:45:59.337Z,102374.71
2018-10-21T01:48:28.829Z,102373.69
2018-10-21T01:50:57.317Z,102378.45
2018-10-21T01:53:25.986Z,102369.98
2018-10-21T01:55:54.345Z,102373.64
2018-10-21T01:58:22.728Z,102372.94
2018-10-21T02:00:51.143Z,102371.27
2018-10-21T02:03:19.696Z,102373.17
2018-10-21T02:05:48.423Z,102370.23
2018-10-21T02:08:16.807Z,102368.13
2018-10-21T02:10:45.864Z,102370.66
2018-10-21T02:13:14.289Z,102369.63
2018-10-21T02:15:42.664Z,102363.19
2018-10-21T02:18:11.089Z,102365.01
2018-10-21T02:20:39.491Z,102363.98
2018-10-21T02:23:07.940Z,102367.34
2018-10-21T02:25:37.264Z,102370.25
2018-10-21T02:28:05.701Z,102366.84
2018-10-21T02:30:34.094Z,102364.64
2018-10-21T02:33:02.776Z,102365.91
2018-10-21T02:35:31.130Z,102362.07
2018-10-21T02:37:59.545Z,102356.68
2018-10-21T02:41:39.829Z,102353.11
2018-10-21T02:44:10.370Z,102346.42
2018-10-21T02:46:39.658Z,102352.88
2018-10-21T02:49:08.823Z,102343.42
2018-10-21T02:51:37.205Z,102349.64
2018-10-21T02:54:06.152Z,102344.78
2018-10-21T02:56:34.607Z,102341.77
2018-10-21T02:59:03.028Z,102341.12
2018-10-21T03:01:31.472Z,102338.09
2018-10-21T03:03:59.834Z,102329.91
2018-10-21T03:06:28.342Z,102330.87
2018-10-21T03:08:56.768Z,102332.36
2018-10-21T03:11:25.143Z,102320.25
2018-10-21T03:13:54.344Z,102315.40
2018-10-21T03:16:22.783Z,102312.46
2018-10-21T03:18:51.188Z,102308.25
2018-10-21T03:21:19.680Z,102310.23
2018-10-21T03:23:48.006Z,102307.52
2018-10-21T03:26:16.440Z,102304.81
2018-10-21T03:28:44.902Z,102313.88
2018-10-21T03:31:13.330Z,102313.48
2018-10-21T03:33:41.727Z,102313.88
2018-10-21T03:36:10.158Z,102317.20
2018-10-21T03:38:39.243Z,102320.45
2018-10-21T03:41:07.659Z,102317.52
2018-10-21T03:43:36.056Z,102323.41
2018-10-21T03:46:04.537Z,102319.61
2018-10-21T03:48:32.935Z,102321.27
2018-10-21T03:51:01.359Z,102313.94
2018-10-21T03:53:29.855Z,102310.41
2018-10-21T03:55:58.269Z,102307.47
2018-10-21T03:58:26.712Z,102307.22
2018-10-21T04:00:55.112Z,102313.39
2018-10-21T04:03:23.489Z,102308.40
2018-10-21T04:05:51.900Z,102308.73
2018-10-21T04:08:20.264Z,102310.80
2018-10-21T04:10:48.709Z,102310.88
2018-10-21T04:13:17.101Z,102303.72
2018-10-21T04:15:45.545Z,102296.09
2018-10-21T04:18:13.940Z,102300.55
2018-10-21T04:20:42.330Z,102301.80
2018-10-21T04:23:10.744Z,102294.82
2018-10-21T04:25:39.869Z,102292.59
2018-10-21T04:28:08.909Z,102278.40
2018-10-21T04:30:38.455Z,102293.64
2018-10-21T04:34:09.769Z,102295.53
2018-10-21T04:36:38.075Z,102291.33
2018-10-21T04:39:45.912Z,102293.95
2018-10-21T04:42:14.295Z,102291.72
2018-10-21T04:44:42.693Z,102289.59
2018-10-21T04:47:11.230Z,102277.69
2018-10-21T04:49:39.517Z,102283.47
2018-10-21T04:52:08.123Z,102282.52
2018-10-21T04:54:36.656Z,102278.93
2018-10-21T04:57:07.091Z,102280.20
2018-10-21T04:59:36.432Z,102275.43
2018-10-21T05:02:04.923Z,102273.77
2018-10-21T05:04:33.405Z,102270.92
2018-10-21T05:07:01.788Z,102273.06
2018-10-21T05:09:31.166Z,102278.67
2018-10-21T05:11:59.564Z,102271.55
2018-10-21T05:14:27.993Z,102279.48
2018-10-21T05:16:56.413Z,102281.61
2018-10-21T05:19:24.841Z,102279.58
2018-10-21T05:21:53.221Z,102277.10
2018-10-21T05:24:21.608Z,102279.19
2018-10-21T05:26:50.139Z,102274.02
2018-10-21T05:29:18.529Z,102269.11
2018-10-21T05:31:46.933Z,102264.51
2018-10-21T05:34:15.401Z,102267.22
2018-10-21T05:36:43.779Z,102267.36
2018-10-21T05:39:12.220Z,102272.42
2018-10-21T05:41:41.116Z,102280.20
2018-10-21T05:44:09.599Z,102286.70
2018-10-21T05:46:48.977Z,102285.31
2018-10-21T05:49:17.551Z,102285.62
2018-10-21T05:51:47.236Z,102285.31
2018-10-21T05:54:16.577Z,102287.16
2018-10-21T05:56:46.237Z,102293.12
2018-10-21T05:59:15.182Z,102285.58
2018-10-21T06:01:44.239Z,102283.36
2018-10-21T06:04:13.638Z,102294.13
2018-10-21T06:06:41.932Z,102289.84
2018-10-21T06:09:11.704Z,102288.09
2018-10-21T06:11:40.221Z,102287.47
2018-10-21T06:14:08.682Z,102288.91
2018-10-21T06:16:56.809Z,102289.05
2018-10-21T06:19:32.565Z,102283.97
2018-10-21T06:22:01.051Z,102292.38
2018-10-21T06:24:29.397Z,102292.06
2018-10-21T06:26:57.814Z,102288.34
2018-10-21T06:29:26.208Z,102293.47
2018-10-21T06:31:54.670Z,102295.53
2018-10-21T06:34:24.737Z,102298.85
2018-10-21T06:36:53.315Z,102303.31
2018-10-21T06:39:21.911Z,102307.28
2018-10-21T06:41:50.340Z,102296.69
2018-10-21T06:44:18.764Z,102300.45
2018-10-21T06:46:47.165Z,102298.42
2018-10-21T06:49:15.549Z,102294.09
2018-10-21T06:51:43.966Z,102295.37
2018-10-21T06:54:12.420Z,102302.23
2018-10-21T06:56:40.902Z,102302.71
2018-10-21T06:59:09.281Z,102300.43
2018-10-21T07:01:37.675Z,102298.28
2018-10-21T07:04:06.681Z,102304.10
2018-10-21T07:06:35.053Z,102306.48
2018-10-21T07:09:05.747Z,102305.07
2018-10-21T07:11:34.191Z,102310.01
2018-10-21T07:14:02.618Z,102314.41
2018-10-21T07:16:32.652Z,102323.08
2018-10-21T07:19:00.937Z,102322.38
2018-10-21T07:21:29.365Z,102320.56
2018-10-21T07:23:57.789Z,102324.06
2018-10-21T07:26:26.295Z,102329.34
2018-10-21T07:28:54.753Z,102326.97
2018-10-21T07:31:23.177Z,102322.14
2018-10-21T07:33:51.601Z,102325.48
2018-10-21T07:36:20.044Z,102330.06
2018-10-21T07:38:48.454Z,102325.70
2018-10-21T07:41:16.911Z,102333.38
2018-10-21T07:43:45.346Z,102332.52
2018-10-21T07:46:13.845Z,102332.95
2018-10-21T07:48:42.328Z,102339.73
2018-10-21T07:51:10.777Z,102331.47
2018-10-21T07:53:39.158Z,102330.08
2018-10-21T07:56:07.519Z,102338.83
2018-10-21T07:58:35.971Z,102339.45
2018-10-21T08:01:04.473Z,102340.17
2018-10-21T08:03:32.854Z,102337.50
2018-10-21T08:06:30.791Z,102335.19
2018-10-21T08:08:59.250Z,102329.14
2018-10-21T08:11:27.656Z,102328.61
2018-10-21T08:13:56.091Z,102326.44
2018-10-21T08:16:24.516Z,102321.84
2018-10-21T08:18:53.900Z,102324.22
2018-10-21T08:21:22.513Z,102326.59
2018-10-21T08:23:50.849Z,102324.20
2018-10-21T08:26:19.349Z,102331.37
2018-10-21T08:28:47.964Z,102330.80
2018-10-21T08:31:16.432Z,102327.20
2018-10-21T08:33:44.957Z,102330.88
2018-10-21T08:36:13.385Z,102332.38
2018-10-21T08:38:41.809Z,102328.45
2018-10-21T08:41:10.285Z,102324.29
2018-10-21T08:43:38.713Z,102329.20
2018-10-21T08:46:07.251Z,102321.95
2018-10-21T08:48:35.672Z,102319.29
2018-10-21T08:51:04.109Z,102316.08
2018-10-21T08:53:32.606Z,102318.14
2018-10-21T08:56:01.073Z,102316.61
2018-10-21T08:58:29.540Z,102313.32
2018-10-21T09:00:58.076Z,102315.55
2018-10-21T09:03:26.505Z,102313.16
2018-10-21T09:05:54.953Z,102314.98
2018-10-21T09:08:23.385Z,102315.85
2018-10-21T09:10:51.841Z,102314.99
2018-10-21T09:13:20.283Z,102312.75
2018-10-21T09:15:48.722Z,102315.31
2018-10-21T09:18:17.164Z,102317.13
2018-10-21T09:20:45.769Z,102318.88
2018-10-21T09:23:14.149Z,102318.23
2018-10-21T09:25:42.894Z,102310.17
2018-10-21T09:28:11.405Z,102314.09
2018-10-21T09:30:39.827Z,102314.90
2018-10-21T09:33:08.250Z,102317.38
2018-10-21T09:35:36.690Z,102311.37
2018-10-21T09:38:06.165Z,102306.44
2018-10-21T09:40:34.671Z,102302.27
2018-10-21T09:43:04.133Z,102305.16
2018-10-21T09:45:32.528Z,102305.56
2018-10-21T09:48:01.184Z,102302.27
2018-10-21T09:50:29.614Z,102297.87
2018-10-21T09:52:58.044Z,102296.86
2018-10-21T09:55:26.476Z,102290.29
2018-10-21T09:57:54.918Z,102289.48
2018-10-21T10:00:28.576Z,102286.98
2018-10-21T10:03:02.298Z,102285.14
2018-10-21T10:05:30.770Z,102288.76
2018-10-21T10:07:59.256Z,102291.78
2018-10-21T10:10:27.687Z,102281.90
2018-10-21T10:12:56.168Z,102280.22
2018-10-21T10:15:24.546Z,102279.88
2018-10-21T10:17:53.069Z,102276.96
2018-10-21T10:20:21.614Z,102277.77
2018-10-21T10:22:50.179Z,102274.45
2018-10-21T10:25:18.778Z,102273.33
2018-10-21T10:27:47.138Z,102271.81
2018-10-21T10:30:15.653Z,102273.09
2018-10-21T10:32:44.544Z,102267.28
2018-10-21T10:35:13.964Z,102260.70
2018-10-21T10:37:42.709Z,102267.66
2018-10-21T10:40:12.220Z,102260.56
2018-10-21T10:42:41.035Z,102263.92
2018-10-21T10:45:09.549Z,102256.16
2018-10-21T10:47:38.549Z,102255.45
2018-10-21T10:50:10.727Z,102253.41
2018-10-21T10:52:39.255Z,102250.28
2018-10-21T10:55:08.198Z,102252.70
2018-10-21T10:57:36.593Z,102247.94
2018-10-21T11:00:05.818Z,102239.84
2018-10-21T11:02:34.153Z,102241.94
2018-10-21T11:05:02.612Z,102237.39
2018-10-21T11:07:31.072Z,102236.31
2018-10-21T11:09:59.519Z,102229.23
2018-10-21T11:12:27.937Z,102220.63
2018-10-21T11:14:57.040Z,102221.01
2018-10-21T11:17:25.508Z,102213.21
2018-10-21T11:19:53.938Z,102208.97
2018-10-21T11:22:22.445Z,102203.84
2018-10-21T11:24:50.868Z,102202.20
2018-10-21T11:27:19.377Z,102198.53
2018-10-21T11:29:49.398Z,102199.33
2018-10-21T11:32:17.778Z,102196.30
2018-10-21T11:34:46.256Z,102188.25
2018-10-21T11:37:14.833Z,102185.82
2018-10-21T11:39:43.848Z,102190.70
2018-10-21T11:42:12.236Z,102185.73
2018-10-21T11:44:40.649Z,102182.25
2018-10-21T11:47:09.117Z,102187.47
2018-10-21T11:49:37.561Z,102187.42
2018-10-21T11:52:07.109Z,102177.58
2018-10-21T11:54:35.489Z,102172.11
2018-10-21T11:57:03.954Z,102175.84
2018-10-21T11:59:32.397Z,102162.61
2018-10-21T12:02:00.892Z,102159.92
2018-10-21T12:04:30.220Z,102158.39
2018-10-21T12:06:58.737Z,102152.98
2018-10-21T12:09:27.155Z,102153.90
2018-10-21T12:11:55.586Z,102153.64
2018-10-21T12:14:24.031Z,102143.51
2018-10-21T12:16:52.500Z,102136.84
2018-10-21T12:19:20.956Z,102138.04
2018-10-21T12:21:49.345Z,102129.89
2018-10-21T12:24:17.776Z,102133.99
2018-10-21T12:26:46.187Z,102132.95
2018-10-21T12:29:14.628Z,102129.61
2018-10-21T12:31:43.059Z,102130.52
2018-10-21T12:34:13.950Z,102121.86
2018-10-21T12:36:42.253Z,102128.47
2018-10-21T12:39:11.667Z,102120.78
2018-10-21T12:41:40.924Z,102116.28
2018-10-21T12:44:09.393Z,102114.55
2018-10-21T12:46:38.361Z,102112.84
2018-10-21T12:49:07.027Z,102110.17
2018-10-21T12:51:36.365Z,102107.45
2018-10-21T12:54:05.378Z,102106.86
2018-10-21T12:56:34.683Z,102102.61
2018-10-21T12:59:03.092Z,102094.16
2018-10-21T13:01:31.517Z,102097.62
2018-10-21T13:04:00.014Z,102089.48
2018-10-21T13:06:28.428Z,102089.42
2018-10-21T13:08:56.956Z,102091.19
2018-10-21T13:11:25.466Z,102091.37
2018-10-21T13:13:53.936Z,102084.05
2018-10-21T13:16:22.379Z,102088.34
2018-10-21T13:18:50.824Z,102079.76
2018-10-21T13:21:19.306Z,102082.09
2018-10-21T13:23:47.752Z,102086.37
2018-10-21T13:26:16.157Z,102079.88
2018-10-21T13:28:44.592Z,102083.90
2018-10-21T13:31:13.138Z,102081.86
2018-10-21T13:33:41.494Z,102078.92
2018-10-21T13:36:09.934Z,102069.47
2018-10-21T13:38:38.408Z,102072.84
2018-10-21T13:41:06.884Z,102064.81
2018-10-21T13:43:35.373Z,102059.80
2018-10-21T13:46:03.974Z,102057.57
2018-10-21T13:48:32.316Z,102056.86
2018-10-21T13:51:00.808Z,102037.63
2018-10-21T13:53:29.239Z,102054.05
2018-10-21T13:55:57.661Z,102050.89
2018-10-21T13:58:26.037Z,102044.66
2018-10-21T14:00:54.556Z,102042.33
2018-10-21T14:03:22.875Z,102042.80
2018-10-21T14:05:51.304Z,102035.71
2018-10-21T14:08:19.730Z,102044.42
2018-10-21T14:10:48.136Z,102038.77
2018-10-21T14:13:16.630Z,102037.34
2018-10-21T14:15:45.092Z,102035.97
2018-10-21T14:18:13.441Z,102033.91
2018-10-21T14:20:46.166Z,102035.19
2018-10-21T14:23:14.600Z,102027.69
2018-10-21T14:25:43.001Z,102027.77
2018-10-21T14:28:11.532Z,102020.84
2018-10-21T14:30:39.980Z,102021.93
2018-10-21T14:33:08.461Z,102016.64
2018-10-21T14:35:36.812Z,102018.73
2018-10-21T14:38:05.334Z,102014.34
2018-10-21T14:40:33.685Z,102011.34
2018-10-21T14:43:02.100Z,102014.09
2018-10-21T14:45:30.476Z,102005.36
2018-10-21T14:47:59.210Z,102003.07
2018-10-21T14:50:27.593Z,101995.66
2018-10-21T14:52:56.018Z,101995.93
2018-10-21T14:55:24.409Z,101993.00
2018-10-21T14:57:52.882Z,101988.11
2018-10-21T15:00:21.348Z,101989.26
2018-10-21T15:02:49.787Z,101985.20
2018-10-21T15:05:18.181Z,101981.52
2018-10-21T15:07:47.132Z,101980.09
2018-10-21T15:10:15.585Z,101983.22
2018-10-21T15:12:44.032Z,101984.03
2018-10-21T15:15:12.536Z,101982.84
2018-10-21T15:17:40.992Z,101982.45
2018-10-21T15:20:11.447Z,101978.50
2018-10-21T15:22:39.861Z,101976.64
2018-10-21T15:25:09.951Z,101976.26
2018-10-21T15:27:38.739Z,101973.63
2018-10-21T15:30:08.435Z,101977.77
2018-10-21T15:32:36.909Z,101975.08
2018-10-21T15:35:05.994Z,101984.36
2018-10-21T15:37:34.453Z,101980.77
2018-10-21T15:40:04.230Z,101981.92
2018-10-21T15:42:33.625Z,101980.02
2018-10-21T15:45:01.980Z,101967.88
2018-10-21T15:47:30.405Z,101971.27
2018-10-21T15:49:59.781Z,101970.31
2018-10-21T15:52:28.239Z,101967.57
2018-10-21T15:54:56.641Z,101969.23
2018-10-21T15:57:25.775Z,101967.84
2018-10-21T15:59:54.192Z,101967.30
2018-10-21T16:02:22.721Z,101967.61
2018-10-21T16:04:51.168Z,101969.72
2018-10-21T16:07:19.585Z,101968.82
2018-10-21T16:09:48.085Z,101962.92
2018-10-21T16:12:16.547Z,101965.11
2018-10-21T16:14:44.962Z,101961.12
2018-10-21T16:17:13.382Z,101964.03
2018-10-21T16:19:41.819Z,101959.63
2018-10-21T16:22:10.222Z,101960.66
2018-10-21T16:24:38.648Z,101956.63
2018-10-21T16:27:07.125Z,101956.41
2018-10-21T16:29:35.590Z,101952.37
2018-10-21T16:32:04.191Z,101955.63
2018-10-21T16:34:32.487Z,101952.48
2018-10-21T16:37:00.912Z,101953.70
2018-10-21T16:39:29.328Z,101954.98
2018-10-21T16:41:57.784Z,101952.37
2018-10-21T16:44:26.175Z,101950.98
2018-10-21T16:46:54.660Z,101953.02
2018-10-21T16:49:23.116Z,101951.13
2018-10-21T16:51:51.599Z,101957.00
2018-10-21T16:54:20.072Z,101960.20
2018-10-21T16:56:48.528Z,101960.08
2018-10-21T16:59:17.011Z,101961.66
2018-10-21T17:01:45.394Z,101964.95
2018-10-21T17:04:14.934Z,101951.33
2018-10-21T17:06:43.321Z,101963.27
2018-10-21T17:09:13.899Z,101963.94
2018-10-21T17:11:42.573Z,101969.63
2018-10-21T17:14:11.032Z,101972.06
2018-10-21T17:16:39.568Z,101974.21
2018-10-21T17:19:08.136Z,101974.62
2018-10-21T17:21:36.605Z,101974.96
2018-10-21T17:24:05.053Z,101977.02
2018-10-21T17:26:33.484Z,101971.81
2018-10-21T17:29:01.945Z,101976.43
2018-10-21T17:31:30.332Z,101972.00
2018-10-21T17:33:58.747Z,101974.27
2018-10-21T17:36:27.167Z,101978.66
2018-10-21T17:38:55.568Z,101984.16
2018-10-21T17:41:23.989Z,101980.64
2018-10-21T17:43:52.418Z,101959.06
2018-10-21T17:46:20.960Z,101984.11
2018-10-21T17:48:49.422Z,101983.98
2018-10-21T17:51:17.938Z,101986.86
2018-10-21T17:53:46.421Z,101988.41
2018-10-21T17:56:14.926Z,101991.28
2018-10-21T17:58:43.341Z,101990.64
2018-10-21T18:01:18.172Z,101992.69
2018-10-21T18:03:48.195Z,101989.53
2018-10-21T18:06:18.720Z,101996.70
2018-10-21T18:08:47.164Z,101995.23
2018-10-21T18:11:17.404Z,101994.22
2018-10-21T18:13:49.362Z,102000.56
2018-10-21T18:16:19.243Z,102000.36
2018-10-21T18:21:29.183Z,102000.28
2018-10-21T18:23:57.737Z,101988.44
2018-10-21T18:26:26.235Z,102002.59
2018-10-21T18:28:54.722Z,101991.55
2018-10-21T18:31:23.285Z,101985.47
2018-10-21T18:33:51.762Z,101992.58
2018-10-21T18:36:20.222Z,101991.95
2018-10-21T18:38:48.736Z,101988.39
2018-10-21T18:41:17.342Z,101993.40
2018-10-21T18:43:45.783Z,101985.68
2018-10-21T18:46:14.264Z,101987.72
2018-10-21T18:48:42.770Z,101993.95
2018-10-21T18:51:11.206Z,101997.22
2018-10-21T18:53:40.615Z,101995.44
2018-10-21T18:56:09.079Z,101995.64
2018-10-21T18:58:37.612Z,101992.62
2018-10-21T19:01:06.084Z,101996.45
2018-10-21T19:03:34.645Z,101994.30
2018-10-21T19:06:03.201Z,101993.27
2018-10-21T19:08:31.669Z,101998.38
2018-10-21T19:11:00.133Z,101998.83
2018-10-21T19:13:28.690Z,101998.78
2018-10-21T19:15:57.146Z,101996.41
2018-10-21T19:18:25.633Z,102001.52
2018-10-21T19:20:54.177Z,101936.67
2018-10-21T19:23:22.626Z,101993.72
2018-10-21T19:25:51.043Z,101998.19
2018-10-21T19:28:19.603Z,101998.95
2018-10-21T19:30:48.063Z,101990.25
2018-10-21T19:33:16.528Z,101989.44
2018-10-21T19:35:45.013Z,101987.34
2018-10-21T19:38:13.479Z,101976.88
2018-10-21T19:40:41.943Z,101981.87
2018-10-21T19:43:10.472Z,101987.23
2018-10-21T19:45:38.881Z,101990.02
2018-10-21T19:48:07.359Z,101986.25
2018-10-21T19:50:35.812Z,101991.35
2018-10-21T19:53:04.324Z,101987.06
2018-10-21T19:55:32.824Z,101994.61
2018-10-21T19:58:01.338Z,101989.34
2018-10-21T20:00:29.749Z,101993.99
2018-10-21T20:02:58.208Z,101993.47
2018-10-21T20:05:26.722Z,101994.45
2018-10-21T20:07:55.180Z,101998.94
2018-10-21T20:10:23.616Z,101997.08
2018-10-21T20:12:52.125Z,101997.89
2018-10-21T20:15:20.628Z,101994.77
2018-10-21T20:17:49.054Z,101996.97
2018-10-21T20:20:17.542Z,101967.91
2018-10-21T20:22:46.600Z,102001.68
2018-10-21T20:25:15.252Z,102002.95
2018-10-21T20:27:43.685Z,101999.47
2018-10-21T20:30:13.482Z,101997.95
2018-10-21T20:32:42.396Z,102003.06
2018-10-21T20:35:11.844Z,101998.89
2018-10-21T20:37:40.410Z,102000.97
2018-10-21T20:40:09.666Z,102000.20
2018-10-21T20:42:38.229Z,102005.61
2018-10-21T20:45:08.177Z,102001.73
2018-10-21T20:47:36.762Z,102002.54
2018-10-21T20:50:05.829Z,102005.44
2018-10-21T20:52:34.321Z,102003.69
2018-10-21T20:55:02.784Z,102003.16
2018-10-21T20:57:31.194Z,102006.86
2018-10-21T20:59:59.617Z,102008.73
2018-10-21T21:02:30.394Z,102010.00
2018-10-21T21:04:58.841Z,102013.30
2018-10-21T21:07:27.336Z,102013.12
2018-10-21T21:09:56.511Z,102015.04
2018-10-21T21:12:24.907Z,102012.02
2018-10-21T21:14:53.413Z,102021.76
2018-10-21T21:17:21.844Z,102015.45
2018-10-21T21:19:50.320Z,102020.89
2018-10-21T21:22:18.864Z,102016.00
2018-10-21T21:24:47.205Z,102021.22
2018-10-21T21:27:15.648Z,102024.38
2018-10-21T21:29:44.131Z,102023.30
2018-10-21T21:32:21.080Z,102023.40
2018-10-21T21:34:49.526Z,102028.80
2018-10-21T21:37:17.946Z,102026.59
2018-10-21T21:39:46.371Z,102029.55
2018-10-21T21:42:14.783Z,102026.94
2018-10-21T21:44:43.233Z,102028.20
2018-10-21T21:47:11.752Z,102033.17
2018-10-21T21:49:40.169Z,102036.53
2018-10-21T21:52:11.002Z,102040.00
2018-10-21T21:54:40.408Z,102037.85
2018-10-21T21:57:08.921Z,102042.95
2018-10-21T21:59:37.339Z,102040.56
2018-10-21T22:02:05.763Z,102037.39
2018-10-21T22:04:34.192Z,102031.08
2018-10-21T22:07:02.641Z,102034.66
2018-10-21T22:09:31.107Z,102024.80
2018-10-21T22:11:59.608Z,102020.70
2018-10-21T22:17:12.989Z,102022.85
2018-10-21T22:19:41.400Z,102025.06
2018-10-21T22:22:16.657Z,102029.35
2018-10-21T22:27:30.719Z,102022.38
2018-10-21T22:29:59.213Z,102027.95
2018-10-21T22:32:27.686Z,102028.62
2018-10-21T22:34:56.159Z,102022.25
2018-10-21T22:37:24.552Z,102023.37
2018-10-21T22:39:53.865Z,102018.03
2018-10-21T22:42:23.038Z,102016.27
2018-10-21T22:44:52.104Z,102016.39
2018-10-21T22:50:03.621Z,102020.69
2018-10-21T22:52:33.477Z,102015.06
2018-10-21T22:55:01.927Z,102015.00
2018-10-21T22:57:30.346Z,102014.87
2018-10-21T22:59:58.792Z,102013.52
2018-10-21T23:02:27.260Z,102017.45
2018-10-21T23:04:55.710Z,102023.29
2018-10-21T23:07:24.160Z,102030.53
2018-10-21T23:09:53.130Z,102026.03
2018-10-21T23:12:21.570Z,102025.06
2018-10-21T23:14:50.098Z,102030.49
2018-10-21T23:17:18.552Z,102031.30
2018-10-21T23:19:48.446Z,102028.75
2018-10-21T23:22:17.030Z,102031.36
2018-10-21T23:24:45.400Z,102029.34
2018-10-21T23:27:14.324Z,102033.43
2018-10-21T23:29:43.711Z,102032.35
2018-10-21T23:32:12.352Z,102033.79
2018-10-21T23:34:40.841Z,102032.30
2018-10-21T23:37:09.253Z,102026.80
2018-10-21T23:39:37.723Z,102031.97
2018-10-21T23:42:06.219Z,102031.09
2018-10-21T23:44:34.628Z,102040.70
2018-10-21T23:47:03.132Z,102039.21
2018-10-21T23:49:31.588Z,102046.52
2018-10-21T23:52:00.072Z,102048.66
2018-10-21T23:54:28.444Z,102050.94
2018-10-21T23:56:56.899Z,102053.18
2018-10-21T23:59:25.376Z,102056.39
